createdAt,value
2023-03-28T00:00:12.094Z,98873.63
2023-03-28T00:02:15.464Z,98882.25
2023-03-28T00:04:22.800Z,98881.56
2023-03-28T00:06:26.473Z,98876.53
2023-03-28T00:08:29.995Z,98879.28
2023-03-28T00:10:33.064Z,98889.47
2023-03-28T00:12:36.632Z,98883.66
2023-03-28T00:14:39.770Z,98889.06
2023-03-28T00:16:46.798Z,98885.94
2023-03-28T00:18:51.029Z,98892.00
2023-03-28T00:20:54.184Z,98897.31
2023-03-28T00:22:57.243Z,98894.03
2023-03-28T00:25:03.037Z,98900.22
2023-03-28T00:27:07.154Z,98896.00
2023-03-28T00:29:11.297Z,98903.69
2023-03-28T00:31:14.728Z,98908.84
2023-03-28T00:33:19.417Z,98909.63
2023-03-28T00:35:22.533Z,98915.53
2023-03-28T00:37:27.002Z,98924.06
2023-03-28T00:39:31.308Z,98921.41
2023-03-28T00:41:36.150Z,98926.47
2023-03-28T00:43:41.994Z,98920.53
2023-03-28T00:45:47.264Z,98927.25
2023-03-28T00:47:57.531Z,98930.75
2023-03-28T00:50:10.901Z,98936.75
2023-03-28T00:52:15.471Z,98929.06
2023-03-28T00:54:20.783Z,98924.78
2023-03-28T00:56:25.072Z,98932.50
2023-03-28T00:58:30.625Z,98927.38
2023-03-28T01:00:34.898Z,98926.50
2023-03-28T01:02:40.223Z,98929.19
2023-03-28T01:04:49.886Z,98930.91
2023-03-28T01:06:59.873Z,98931.72
2023-03-28T01:09:06.604Z,98930.13
2023-03-28T01:11:10.619Z,98931.00
2023-03-28T01:13:14.911Z,98930.22
2023-03-28T01:15:18.509Z,98937.19
2023-03-28T01:17:28.032Z,98935.56
2023-03-28T01:19:45.541Z,98939.09
2023-03-28T01:22:11.182Z,98938.22
2023-03-28T01:24:43.971Z,98937.44
2023-03-28T01:26:50.929Z,98948.66
2023-03-28T01:29:15.802Z,98945.34
2023-03-28T01:31:48.428Z,98944.72
2023-03-28T01:34:35.009Z,98945.56
2023-03-28T01:37:03.610Z,98941.50
2023-03-28T01:39:19.469Z,98947.53
2023-03-28T01:41:27.869Z,98957.78
2023-03-28T01:43:35.742Z,98955.25
2023-03-28T01:45:46.259Z,98946.72
2023-03-28T01:47:53.475Z,98957.13
2023-03-28T01:50:02.394Z,98952.03
2023-03-28T01:52:11.513Z,98947.78
2023-03-28T01:54:21.394Z,98950.38
2023-03-28T01:56:30.756Z,98958.88
2023-03-28T01:58:43.553Z,98958.81
2023-03-28T02:00:57.104Z,98948.50
2023-03-28T02:03:04.160Z,98956.28
2023-03-28T02:05:15.424Z,98959.66
2023-03-28T02:07:22.076Z,98955.47
2023-03-28T02:09:58.454Z,98950.44
2023-03-28T02:12:30.991Z,98958.34
2023-03-28T02:14:42.429Z,98952.53
2023-03-28T02:17:15.586Z,98955.03
2023-03-28T02:19:38.876Z,98951.56
2023-03-28T02:21:51.489Z,98950.72
2023-03-28T02:24:25.956Z,98955.88
2023-03-28T02:26:41.967Z,98955.09
2023-03-28T02:29:04.018Z,98955.09
2023-03-28T02:31:14.669Z,98954.22
2023-03-28T02:33:39.231Z,98961.88
2023-03-28T02:35:55.480Z,98955.78
2023-03-28T02:38:04.282Z,98958.31
2023-03-28T02:40:26.477Z,98965.22
2023-03-28T02:42:43.477Z,98961.88
2023-03-28T02:45:05.782Z,98958.53
2023-03-28T02:47:16.251Z,98955.25
2023-03-28T02:49:33.045Z,98955.38
2023-03-28T02:51:46.518Z,98958.03
2023-03-28T02:53:54.623Z,98958.22
2023-03-28T02:56:04.988Z,98956.59
2023-03-28T02:58:37.946Z,98961.84
2023-03-28T03:00:41.181Z,98964.44
2023-03-28T03:02:45.108Z,98964.34
2023-03-28T03:04:50.358Z,98967.66
2023-03-28T03:06:53.504Z,98970.28
2023-03-28T03:08:56.845Z,98961.63
2023-03-28T03:11:01.568Z,98968.44
2023-03-28T03:13:04.715Z,98972.72
2023-03-28T03:15:08.987Z,98965.09
2023-03-28T03:17:21.123Z,98960.84
2023-03-28T03:19:24.843Z,98972.03
2023-03-28T03:21:28.197Z,98968.53
2023-03-28T03:23:31.276Z,98967.66
2023-03-28T03:25:36.226Z,98967.56
2023-03-28T03:27:50.596Z,98967.53
2023-03-28T03:29:55.502Z,98969.88
2023-03-28T03:32:03.034Z,98968.94
2023-03-28T03:34:16.513Z,98974.00
2023-03-28T03:36:27.087Z,98968.72
2023-03-28T03:38:30.320Z,98980.81
2023-03-28T03:40:33.942Z,98980.84
2023-03-28T03:42:37.670Z,98980.03
2023-03-28T03:44:42.995Z,98978.44
2023-03-28T03:46:46.535Z,98977.59
2023-03-28T03:48:50.549Z,98974.31
2023-03-28T03:50:54.560Z,98980.25
2023-03-28T03:52:58.732Z,98974.44
2023-03-28T03:55:10.226Z,98979.72
2023-03-28T03:57:15.512Z,98979.72
2023-03-28T03:59:19.476Z,98976.25
2023-03-28T04:01:25.929Z,98970.41
2023-03-28T04:03:31.000Z,98974.94
2023-03-28T04:05:34.084Z,98976.91
2023-03-28T04:07:39.749Z,98969.09
2023-03-28T04:09:48.229Z,98981.03
2023-03-28T04:11:51.485Z,98979.50
2023-03-28T04:13:54.496Z,98981.41
2023-03-28T04:15:58.021Z,98974.75
2023-03-28T04:18:11.216Z,98972.34
2023-03-28T04:20:19.874Z,98970.69
2023-03-28T04:22:36.931Z,98979.25
2023-03-28T04:24:49.885Z,98973.25
2023-03-28T04:26:59.729Z,98971.53
2023-03-28T04:29:05.707Z,98978.31
2023-03-28T04:31:12.225Z,98977.38
2023-03-28T04:33:35.565Z,98982.56
2023-03-28T04:35:40.914Z,98981.81
2023-03-28T04:37:44.433Z,98985.41
2023-03-28T04:39:48.163Z,98986.22
2023-03-28T04:42:05.262Z,98995.72
2023-03-28T04:44:26.832Z,99000.75
2023-03-28T04:46:35.101Z,98994.91
2023-03-28T04:48:47.996Z,99011.19
2023-03-28T04:51:01.395Z,99001.75
2023-03-28T04:53:04.510Z,99010.34
2023-03-28T04:55:10.283Z,99015.59
2023-03-28T04:57:14.204Z,99017.28
2023-03-28T04:59:23.389Z,99020.72
2023-03-28T05:01:27.611Z,99012.19
2023-03-28T05:04:04.461Z,99017.34
2023-03-28T05:06:08.652Z,99019.06
2023-03-28T05:08:12.872Z,99024.22
2023-03-28T05:10:16.558Z,99029.38
2023-03-28T05:12:20.044Z,99028.56
2023-03-28T05:14:40.600Z,99026.06
2023-03-28T05:16:49.268Z,99026.09
2023-03-28T05:19:12.292Z,99027.00
2023-03-28T05:21:34.221Z,99033.91
2023-03-28T05:23:37.566Z,99025.31
2023-03-28T05:25:51.928Z,99036.44
2023-03-28T05:27:55.306Z,99034.69
2023-03-28T05:29:58.734Z,99043.06
2023-03-28T05:32:02.001Z,99048.00
2023-03-28T05:34:07.040Z,99053.78
2023-03-28T05:36:19.161Z,99051.81
2023-03-28T05:38:23.150Z,99066.09
2023-03-28T05:40:30.921Z,99070.13
2023-03-28T05:42:34.414Z,99075.84
2023-03-28T05:44:44.553Z,99078.09
2023-03-28T05:47:07.043Z,99086.34
2023-03-28T05:49:11.844Z,99085.25
2023-03-28T05:51:16.967Z,99084.88
2023-03-28T05:53:21.562Z,99087.16
2023-03-28T05:55:25.918Z,99087.69
2023-03-28T05:57:29.092Z,99101.06
2023-03-28T05:59:32.994Z,99104.13
2023-03-28T06:01:37.137Z,99107.22
2023-03-28T06:03:45.586Z,99106.81
2023-03-28T06:05:49.327Z,99102.09
2023-03-28T06:07:56.465Z,99109.44
2023-03-28T06:10:01.934Z,99109.06
2023-03-28T06:12:07.540Z,99118.97
2023-03-28T06:14:13.429Z,99120.41
2023-03-28T06:16:17.036Z,99117.47
2023-03-28T06:18:20.285Z,99126.63
2023-03-28T06:20:25.632Z,99132.19
2023-03-28T06:22:32.063Z,99131.16
2023-03-28T06:24:41.872Z,99135.78
2023-03-28T06:26:46.701Z,99140.53
2023-03-28T06:28:54.131Z,99133.34
2023-03-28T06:31:00.538Z,99144.97
2023-03-28T06:33:04.267Z,99142.00
2023-03-28T06:35:08.783Z,99152.56
2023-03-28T06:37:11.918Z,99158.09
2023-03-28T06:39:27.803Z,99165.03
2023-03-28T06:41:33.975Z,99164.38
2023-03-28T06:43:38.450Z,99163.03
2023-03-28T06:45:45.512Z,99173.72
2023-03-28T06:47:51.743Z,99170.53
2023-03-28T06:50:00.621Z,99173.41
2023-03-28T06:52:24.090Z,99187.50
2023-03-28T06:54:29.458Z,99184.44
2023-03-28T06:56:34.822Z,99177.81
2023-03-28T06:58:40.303Z,99182.47
2023-03-28T07:00:46.751Z,99179.28
2023-03-28T07:03:07.844Z,99175.94
2023-03-28T07:05:13.691Z,99179.66
2023-03-28T07:07:16.814Z,99183.34
2023-03-28T07:09:20.329Z,99194.53
2023-03-28T07:11:29.395Z,99190.19
2023-03-28T07:13:32.493Z,99191.19
2023-03-28T07:15:41.756Z,99200.78
2023-03-28T07:17:44.975Z,99202.06
2023-03-28T07:19:51.159Z,99205.94
2023-03-28T07:21:54.440Z,99204.75
2023-03-28T07:23:59.486Z,99209.81
2023-03-28T07:26:09.729Z,99216.00
2023-03-28T07:28:12.772Z,99223.91
2023-03-28T07:30:16.439Z,99214.88
2023-03-28T07:32:21.015Z,99216.84
2023-03-28T07:34:24.149Z,99215.22
2023-03-28T07:36:28.738Z,99219.31
2023-03-28T07:38:38.242Z,99211.97
2023-03-28T07:40:41.606Z,99218.59
2023-03-28T07:42:44.731Z,99222.84
2023-03-28T07:44:47.795Z,99215.41
2023-03-28T07:46:52.936Z,99212.56
2023-03-28T07:48:57.420Z,99228.75
2023-03-28T07:51:01.456Z,99229.59
2023-03-28T07:53:04.736Z,99219.47
2023-03-28T07:55:11.288Z,99218.69
2023-03-28T07:57:17.877Z,99219.06
2023-03-28T07:59:39.626Z,99215.50
2023-03-28T08:01:44.062Z,99219.97
2023-03-28T08:03:47.271Z,99221.81
2023-03-28T08:05:52.546Z,99220.50
2023-03-28T08:07:58.613Z,99232.75
2023-03-28T08:10:02.192Z,99226.94
2023-03-28T08:12:07.814Z,99233.63
2023-03-28T08:14:13.774Z,99235.56
2023-03-28T08:16:16.928Z,99234.69
2023-03-28T08:18:20.984Z,99230.50
2023-03-28T08:20:24.745Z,99232.31
2023-03-28T08:22:50.044Z,99234.03
2023-03-28T08:25:15.765Z,99243.41
2023-03-28T08:27:21.031Z,99231.69
2023-03-28T08:29:27.479Z,99242.38
2023-03-28T08:31:30.756Z,99239.94
2023-03-28T08:33:48.564Z,99247.53
2023-03-28T08:35:52.639Z,99243.09
2023-03-28T08:37:58.854Z,99241.44
2023-03-28T08:40:08.809Z,99244.88
2023-03-28T08:42:39.949Z,99244.22
2023-03-28T08:44:52.802Z,99239.84
2023-03-28T08:46:58.900Z,99237.97
2023-03-28T08:49:06.519Z,99237.97
2023-03-28T08:51:16.973Z,99235.88
2023-03-28T08:53:27.557Z,99245.13
2023-03-28T08:55:32.722Z,99234.75
2023-03-28T08:57:37.333Z,99239.75
2023-03-28T08:59:44.338Z,99248.16
2023-03-28T09:01:47.966Z,99249.28
2023-03-28T09:03:51.647Z,99248.88
2023-03-28T09:06:04.875Z,99240.22
2023-03-28T09:08:21.913Z,99242.22
2023-03-28T09:10:33.153Z,99235.34
2023-03-28T09:12:53.675Z,99227.19
2023-03-28T09:15:08.098Z,99222.63
2023-03-28T09:17:14.962Z,99225.16
2023-03-28T09:19:40.689Z,99224.13
2023-03-28T09:22:26.715Z,99222.25
2023-03-28T09:24:41.551Z,99215.81
2023-03-28T09:26:55.224Z,99218.16
2023-03-28T09:29:02.777Z,99224.00
2023-03-28T09:31:09.151Z,99223.63
2023-03-28T09:33:16.095Z,99220.25
2023-03-28T09:35:21.351Z,99220.84
2023-03-28T09:37:39.542Z,99220.22
2023-03-28T09:39:49.136Z,99213.25
2023-03-28T09:41:59.713Z,99204.59
2023-03-28T09:44:25.332Z,99219.41
2023-03-28T09:46:57.720Z,99205.19
2023-03-28T09:49:21.424Z,99203.66
2023-03-28T09:51:29.887Z,99208.50
2023-03-28T09:53:34.529Z,99209.81
2023-03-28T09:55:37.787Z,99206.88
2023-03-28T09:58:02.585Z,99199.47
2023-03-28T10:00:08.637Z,99206.78
2023-03-28T10:02:27.512Z,99208.88
2023-03-28T10:04:36.926Z,99206.84
2023-03-28T10:06:52.383Z,99204.44
2023-03-28T10:09:16.425Z,99213.63
2023-03-28T10:11:29.785Z,99218.72
2023-03-28T10:13:42.810Z,99214.59
2023-03-28T10:15:47.265Z,99215.53
2023-03-28T10:17:53.473Z,99217.81
2023-03-28T10:20:06.357Z,99205.78
2023-03-28T10:22:15.518Z,99213.28
2023-03-28T10:24:23.765Z,99216.38
2023-03-28T10:26:32.149Z,99214.94
2023-03-28T10:28:38.349Z,99201.88
2023-03-28T10:30:42.981Z,99203.84
2023-03-28T10:33:08.962Z,99199.44
2023-03-28T10:35:31.450Z,99196.00
2023-03-28T10:37:57.984Z,99197.94
2023-03-28T10:40:26.443Z,99188.22
2023-03-28T10:43:01.963Z,99190.03
2023-03-28T10:45:21.679Z,99184.03
2023-03-28T10:47:27.259Z,99185.31
2023-03-28T10:49:42.799Z,99183.41
2023-03-28T10:51:46.901Z,99177.25
2023-03-28T10:54:11.331Z,99177.91
2023-03-28T10:56:23.115Z,99176.00
2023-03-28T10:58:32.254Z,99174.38
2023-03-28T11:00:42.298Z,99175.06
2023-03-28T11:02:57.672Z,99171.47
2023-03-28T11:05:15.569Z,99173.00
2023-03-28T11:07:23.857Z,99175.75
2023-03-28T11:09:41.242Z,99165.97
2023-03-28T11:12:26.500Z,99164.81
2023-03-28T11:14:41.353Z,99157.22
2023-03-28T11:16:50.827Z,99152.06
2023-03-28T11:19:08.962Z,99154.09
2023-03-28T11:21:24.377Z,99151.41
2023-03-28T11:23:38.941Z,99150.22
2023-03-28T11:26:09.618Z,99143.81
2023-03-28T11:28:40.930Z,99150.25
2023-03-28T11:30:56.134Z,99146.84
2023-03-28T11:33:14.128Z,99134.88
2023-03-28T11:35:23.477Z,99139.78
2023-03-28T11:37:29.102Z,99130.75
2023-03-28T11:39:37.302Z,99131.78
2023-03-28T11:41:42.103Z,99134.13
2023-03-28T11:43:54.037Z,99132.38
2023-03-28T11:46:00.705Z,99128.81
2023-03-28T11:48:08.071Z,99124.53
2023-03-28T11:50:19.854Z,99123.09
2023-03-28T11:52:38.727Z,99116.63
2023-03-28T11:54:47.558Z,99120.88
2023-03-28T11:56:54.303Z,99120.97
2023-03-28T11:59:15.831Z,99121.97
2023-03-28T12:01:23.057Z,99118.00
2023-03-28T12:03:29.333Z,99117.22
2023-03-28T12:05:38.710Z,99114.09
2023-03-28T12:07:45.690Z,99106.84
2023-03-28T12:10:07.574Z,99099.09
2023-03-28T12:12:14.505Z,99095.97
2023-03-28T12:14:29.436Z,99091.09
2023-03-28T12:16:42.162Z,99093.34
2023-03-28T12:18:50.857Z,99085.31
2023-03-28T12:21:36.990Z,99075.03
2023-03-28T12:23:47.302Z,99083.63
2023-03-28T12:26:21.362Z,99084.19
2023-03-28T12:28:30.510Z,99081.06
2023-03-28T12:30:37.058Z,99075.81
2023-03-28T12:32:46.689Z,99065.03
2023-03-28T12:34:58.889Z,99057.78
2023-03-28T12:37:17.914Z,99056.94
2023-03-28T12:39:34.945Z,99054.84
2023-03-28T12:41:42.144Z,99057.81
2023-03-28T12:43:48.192Z,99050.06
2023-03-28T12:46:00.514Z,99046.09
2023-03-28T12:48:07.385Z,99044.47
2023-03-28T12:50:17.706Z,99050.91
2023-03-28T12:52:25.917Z,99051.84
2023-03-28T12:54:34.151Z,99042.03
2023-03-28T12:56:40.610Z,99044.09
2023-03-28T12:58:46.709Z,99045.56
2023-03-28T13:01:36.359Z,99043.91
2023-03-28T13:03:51.315Z,99041.03
2023-03-28T13:06:03.916Z,99037.75
2023-03-28T13:08:15.820Z,99031.06
2023-03-28T13:10:24.123Z,99029.84
2023-03-28T13:12:48.885Z,99027.44
2023-03-28T13:14:59.873Z,99029.41
2023-03-28T13:17:05.946Z,99018.31
2023-03-28T13:19:11.297Z,99021.28
2023-03-28T13:21:14.591Z,99012.78
2023-03-28T13:23:21.230Z,99021.44
2023-03-28T13:25:27.313Z,99024.16
2023-03-28T13:27:32.749Z,99018.56
2023-03-28T13:29:47.418Z,99017.66
2023-03-28T13:31:51.128Z,99018.41
2023-03-28T13:33:58.669Z,99015.47
2023-03-28T13:36:20.547Z,99006.44
2023-03-28T13:38:33.208Z,99005.69
2023-03-28T13:40:48.446Z,99000.72
2023-03-28T13:42:58.623Z,99000.72
2023-03-28T13:45:05.288Z,98991.91
2023-03-28T13:47:14.983Z,98994.25
2023-03-28T13:49:19.827Z,98994.84
2023-03-28T13:51:26.322Z,98995.69
2023-03-28T13:53:44.663Z,98982.53
2023-03-28T13:56:08.020Z,98990.69
2023-03-28T13:58:13.345Z,98977.47
2023-03-28T14:00:17.880Z,98979.75
2023-03-28T14:02:22.912Z,98975.03
2023-03-28T14:04:27.467Z,98975.41
2023-03-28T14:06:31.638Z,98972.34
2023-03-28T14:08:36.193Z,98970.19
2023-03-28T14:10:43.274Z,98967.13
2023-03-28T14:12:46.611Z,98966.88
2023-03-28T14:14:51.458Z,98955.03
2023-03-28T14:16:54.948Z,98954.25
2023-03-28T14:18:58.249Z,98956.13
2023-03-28T14:21:01.961Z,98950.53
2023-03-28T14:23:06.541Z,98946.06
2023-03-28T14:25:14.684Z,98946.88
2023-03-28T14:27:29.049Z,98937.44
2023-03-28T14:29:32.099Z,98931.13
2023-03-28T14:31:38.384Z,98927.53
2023-03-28T14:33:41.960Z,98928.97
2023-03-28T14:35:58.278Z,98916.31
2023-03-28T14:38:02.919Z,98909.53
2023-03-28T14:40:20.449Z,98909.91
2023-03-28T14:42:24.381Z,98908.22
2023-03-28T14:44:27.784Z,98898.97
2023-03-28T14:46:33.902Z,98898.41
2023-03-28T14:48:38.244Z,98898.41
2023-03-28T14:50:42.132Z,98901.75
2023-03-28T14:52:45.320Z,98896.53
2023-03-28T14:54:49.223Z,98894.97
2023-03-28T14:56:53.832Z,98888.63
2023-03-28T14:59:01.249Z,98881.44
2023-03-28T15:01:05.634Z,98879.09
2023-03-28T15:03:13.274Z,98879.41
2023-03-28T15:05:18.976Z,98885.53
2023-03-28T15:07:24.306Z,98870.38
2023-03-28T15:09:31.210Z,98868.25
2023-03-28T15:11:35.590Z,98865.34
2023-03-28T15:13:41.154Z,98854.13
2023-03-28T15:15:46.121Z,98853.38
2023-03-28T15:17:50.863Z,98853.28
2023-03-28T15:19:58.301Z,98852.94
2023-03-28T15:22:04.274Z,98848.19
2023-03-28T15:24:11.340Z,98840.53
2023-03-28T15:26:21.290Z,98843.16
2023-03-28T15:28:28.121Z,98831.19
2023-03-28T15:30:35.760Z,98834.19
2023-03-28T15:32:38.908Z,98833.34
2023-03-28T15:34:46.963Z,98829.44
2023-03-28T15:36:54.214Z,98817.41
2023-03-28T15:39:01.093Z,98810.41
2023-03-28T15:41:12.892Z,98817.41
2023-03-28T15:43:37.797Z,98809.88
2023-03-28T15:45:44.509Z,98809.00
2023-03-28T15:47:48.331Z,98808.09
2023-03-28T15:49:51.934Z,98796.69
2023-03-28T15:51:57.157Z,98791.56
2023-03-28T15:54:00.401Z,98787.91
2023-03-28T15:56:08.654Z,98789.59
2023-03-28T15:58:14.412Z,98797.25
2023-03-28T16:00:39.244Z,98789.41
2023-03-28T16:02:44.264Z,98798.81
2023-03-28T16:04:58.994Z,98793.59
2023-03-28T16:07:10.384Z,98790.97
2023-03-28T16:09:17.164Z,98789.41
2023-03-28T16:11:23.330Z,98785.84
2023-03-28T16:13:45.181Z,98793.69
2023-03-28T16:16:07.967Z,98786.72
2023-03-28T16:18:38.815Z,98783.34
2023-03-28T16:20:42.768Z,98776.44
2023-03-28T16:22:46.997Z,98775.91
2023-03-28T16:24:50.425Z,98772.72
2023-03-28T16:26:53.572Z,98762.34
2023-03-28T16:28:56.945Z,98759.00
2023-03-28T16:31:00.097Z,98760.22
2023-03-28T16:33:03.346Z,98751.53
2023-03-28T16:35:10.029Z,98745.78
2023-03-28T16:37:13.161Z,98742.53
2023-03-28T16:39:16.295Z,98744.53
2023-03-28T16:41:19.485Z,98738.84
2023-03-28T16:43:22.567Z,98736.41
2023-03-28T16:45:25.733Z,98738.75
2023-03-28T16:47:29.852Z,98742.09
2023-03-28T16:49:33.146Z,98736.88
2023-03-28T16:51:37.584Z,98741.09
2023-03-28T16:53:41.708Z,98741.81
2023-03-28T16:55:45.532Z,98736.41
2023-03-28T16:57:49.334Z,98731.94
2023-03-28T16:59:54.739Z,98727.84
2023-03-28T17:01:57.851Z,98730.63
2023-03-28T17:04:01.412Z,98726.53
2023-03-28T17:06:05.086Z,98716.44
2023-03-28T17:08:10.244Z,98727.84
2023-03-28T17:10:13.474Z,98715.06
2023-03-28T17:12:16.922Z,98711.78
2023-03-28T17:14:20.759Z,98705.81
2023-03-28T17:16:24.362Z,98701.72
2023-03-28T17:18:28.110Z,98695.94
2023-03-28T17:20:31.272Z,98688.28
2023-03-28T17:22:34.420Z,98682.44
2023-03-28T17:24:38.959Z,98684.19
2023-03-28T17:26:42.036Z,98676.53
2023-03-28T17:28:45.963Z,98673.38
2023-03-28T17:30:49.372Z,98668.34
2023-03-28T17:32:52.802Z,98677.22
2023-03-28T17:34:55.992Z,98668.81
2023-03-28T17:36:59.211Z,98665.53
2023-03-28T17:39:02.997Z,98664.81
2023-03-28T17:41:08.361Z,98675.34
2023-03-28T17:43:11.770Z,98665.00
2023-03-28T17:45:15.202Z,98657.44
2023-03-28T17:47:18.520Z,98665.53
2023-03-28T17:49:22.501Z,98659.19
2023-03-28T17:51:26.156Z,98658.25
2023-03-28T17:53:29.627Z,98656.16
2023-03-28T17:55:32.788Z,98650.91
2023-03-28T17:57:37.388Z,98643.44
2023-03-28T17:59:40.700Z,98631.88
2023-03-28T18:01:43.855Z,98641.03
2023-03-28T18:03:47.659Z,98634.59
2023-03-28T18:06:08.499Z,98631.56
2023-03-28T18:08:11.713Z,98624.28
2023-03-28T18:10:15.039Z,98634.97
2023-03-28T18:12:18.779Z,98640.25
2023-03-28T18:14:23.344Z,98641.25
2023-03-28T18:16:27.707Z,98636.13
2023-03-28T18:18:30.986Z,98625.72
2023-03-28T18:20:34.152Z,98631.19
2023-03-28T18:22:38.533Z,98630.59
2023-03-28T18:24:41.734Z,98623.63
2023-03-28T18:26:45.124Z,98618.94
2023-03-28T18:28:48.335Z,98619.66
2023-03-28T18:30:53.187Z,98618.09
2023-03-28T18:32:56.701Z,98618.25
2023-03-28T18:35:00.566Z,98617.41
2023-03-28T18:37:05.051Z,98614.06
2023-03-28T18:39:10.368Z,98607.25
2023-03-28T18:41:15.625Z,98605.66
2023-03-28T18:43:18.726Z,98607.69
2023-03-28T18:45:21.899Z,98607.78
2023-03-28T18:47:26.489Z,98601.81
2023-03-28T18:49:29.838Z,98587.31
2023-03-28T18:51:33.439Z,98598.69
2023-03-28T18:53:38.187Z,98586.94
2023-03-28T18:55:42.335Z,98597.34
2023-03-28T18:57:45.938Z,98601.81
2023-03-28T18:59:52.589Z,98597.69
2023-03-28T19:01:55.932Z,98596.03
2023-03-28T19:04:00.812Z,98589.88
2023-03-28T19:06:04.449Z,98595.78
2023-03-28T19:08:07.689Z,98597.44
2023-03-28T19:10:12.938Z,98599.94
2023-03-28T19:12:16.528Z,98601.63
2023-03-28T19:14:19.766Z,98601.81
2023-03-28T19:16:22.999Z,98596.59
2023-03-28T19:18:26.375Z,98593.16
2023-03-28T19:20:31.162Z,98598.03
2023-03-28T19:22:35.090Z,98609.94
2023-03-28T19:24:38.472Z,98606.44
2023-03-28T19:26:41.577Z,98610.72
2023-03-28T19:28:44.873Z,98610.72
2023-03-28T19:30:48.111Z,98612.22
2023-03-28T19:32:51.275Z,98611.22
2023-03-28T19:34:54.641Z,98614.47
2023-03-28T19:36:59.214Z,98608.34
2023-03-28T19:39:03.090Z,98615.16
2023-03-28T19:41:10.760Z,98612.66
2023-03-28T19:43:17.698Z,98611.88
2023-03-28T19:45:20.985Z,98618.09
2023-03-28T19:47:24.109Z,98617.25
2023-03-28T19:49:27.327Z,98610.38
2023-03-28T19:51:30.523Z,98611.03
2023-03-28T19:53:35.069Z,98618.94
2023-03-28T19:55:38.486Z,98623.47
2023-03-28T19:57:41.991Z,98611.38
2023-03-28T19:59:45.111Z,98606.44
2023-03-28T20:01:48.344Z,98598.94
2023-03-28T20:03:53.104Z,98598.47
2023-03-28T20:05:56.472Z,98588.22
2023-03-28T20:07:59.612Z,98587.53
2023-03-28T20:10:04.468Z,98575.47
2023-03-28T20:12:07.755Z,98577.47
2023-03-28T20:14:17.052Z,98583.50
2023-03-28T20:16:20.341Z,98587.59
2023-03-28T20:18:24.316Z,98581.31
2023-03-28T20:20:27.589Z,98578.47
2023-03-28T20:22:34.221Z,98581.66
2023-03-28T20:24:37.429Z,98580.66
2023-03-28T20:26:42.164Z,98577.81
2023-03-28T20:28:46.862Z,98573.34
2023-03-28T20:30:49.967Z,98577.47
2023-03-28T20:32:53.124Z,98576.56
2023-03-28T20:34:56.232Z,98582.34
2023-03-28T20:36:59.838Z,98582.16
2023-03-28T20:39:03.705Z,98577.78
2023-03-28T20:41:10.894Z,98573.53
2023-03-28T20:43:19.981Z,98582.16
2023-03-28T20:45:23.290Z,98586.34
2023-03-28T20:47:28.765Z,98593.06
2023-03-28T20:49:32.134Z,98593.72
2023-03-28T20:51:39.342Z,98590.13
2023-03-28T20:53:44.232Z,98593.56
2023-03-28T20:55:48.121Z,98583.91
2023-03-28T20:57:51.388Z,98587.19
2023-03-28T20:59:58.632Z,98582.22
2023-03-28T21:02:02.155Z,98581.47
2023-03-28T21:04:05.759Z,98573.16
2023-03-28T21:06:09.113Z,98575.34
2023-03-28T21:08:15.508Z,98571.53
2023-03-28T21:10:19.231Z,98577.97
2023-03-28T21:12:22.404Z,98576.03
2023-03-28T21:14:25.533Z,98575.13
2023-03-28T21:16:31.467Z,98570.66
2023-03-28T21:18:37.391Z,98577.28
2023-03-28T21:20:40.362Z,98584.84
2023-03-28T21:22:43.524Z,98589.97
2023-03-28T21:24:49.695Z,98591.91
2023-03-28T21:26:52.767Z,98576.47
2023-03-28T21:28:56.021Z,98584.25
2023-03-28T21:31:00.185Z,98579.31
2023-03-28T21:33:05.238Z,98587.34
2023-03-28T21:35:09.537Z,98578.13
2023-03-28T21:37:13.038Z,98579.38
2023-03-28T21:39:16.153Z,98572.47
2023-03-28T21:41:19.235Z,98557.91
2023-03-28T21:43:22.425Z,98547.84
2023-03-28T21:45:25.622Z,98542.03
2023-03-28T21:47:28.721Z,98554.28
2023-03-28T21:49:33.355Z,98535.47
2023-03-28T21:51:36.530Z,98540.66
2023-03-28T21:53:39.696Z,98544.53
2023-03-28T21:55:43.241Z,98541.75
2023-03-28T21:57:46.418Z,98532.47
2023-03-28T21:59:49.459Z,98520.13
2023-03-28T22:01:52.791Z,98526.97
2023-03-28T22:03:56.017Z,98517.88
2023-03-28T22:06:00.498Z,98513.94
2023-03-28T22:08:04.567Z,98504.88
2023-03-28T22:10:08.371Z,98509.59
2023-03-28T22:12:11.508Z,98507.41
2023-03-28T22:14:14.583Z,98514.69
2023-03-28T22:16:17.654Z,98526.53
2023-03-28T22:18:21.234Z,98529.88
2023-03-28T22:20:26.422Z,98527.84
2023-03-28T22:22:30.797Z,98545.25
2023-03-28T22:24:34.051Z,98553.88
2023-03-28T22:26:37.209Z,98540.28
2023-03-28T22:28:40.269Z,98525.88
2023-03-28T22:30:43.517Z,98514.38
2023-03-28T22:32:46.893Z,98498.94
2023-03-28T22:34:51.083Z,98492.91
2023-03-28T22:36:54.902Z,98501.53
2023-03-28T22:38:59.394Z,98499.69
2023-03-28T22:41:02.576Z,98511.84
2023-03-28T22:43:05.805Z,98522.09
2023-03-28T22:45:10.188Z,98538.69
2023-03-28T22:47:13.286Z,98553.28
2023-03-28T22:49:22.430Z,98561.00
2023-03-28T22:51:28.272Z,98560.09
2023-03-28T22:53:31.554Z,98560.00
2023-03-28T22:55:36.684Z,98544.50
2023-03-28T22:57:41.760Z,98539.88
2023-03-28T22:59:44.825Z,98539.88
2023-03-28T23:01:48.053Z,98538.03
2023-03-28T23:03:51.990Z,98537.84
2023-03-28T23:05:55.344Z,98557.66
2023-03-28T23:08:00.027Z,98559.34
2023-03-28T23:10:03.605Z,98560.09
2023-03-28T23:12:09.747Z,98586.84
2023-03-28T23:14:13.552Z,98572.94
2023-03-28T23:16:17.092Z,98565.63
2023-03-28T23:18:20.647Z,98562.81
2023-03-28T23:20:24.700Z,98556.78
2023-03-28T23:22:27.912Z,98560.84
2023-03-28T23:24:31.771Z,98563.09
2023-03-28T23:26:34.776Z,98559.41
2023-03-28T23:28:39.318Z,98559.72
2023-03-28T23:30:42.377Z,98539.16
2023-03-28T23:32:45.644Z,98536.47
2023-03-28T23:34:48.983Z,98539.16
2023-03-28T23:36:52.361Z,98546.22
2023-03-28T23:38:55.809Z,98540.41
2023-03-28T23:40:58.833Z,98536.22
2023-03-28T23:43:01.913Z,98535.31
2023-03-28T23:45:07.570Z,98536.13
2023-03-28T23:47:12.463Z,98527.75
2023-03-28T23:49:15.842Z,98516.91
2023-03-28T23:51:18.923Z,98521.50
2023-03-28T23:53:22.195Z,98518.31
2023-03-28T23:55:25.758Z,98515.06
2023-03-28T23:57:29.531Z,98504.38
2023-03-28T23:59:32.660Z,98492.59
